createdAt,value
2016-07-13T00:00:34.965Z,0
2016-07-13T00:01:34.960Z,0
2016-07-13T00:02:34.935Z,0
2016-07-13T00:03:34.966Z,0
2016-07-13T00:04:34.986Z,0
2016-07-13T00:05:34.949Z,0
2016-07-13T00:06:34.949Z,0
2016-07-13T00:07:35.028Z,0
2016-07-13T00:08:34.931Z,0
2016-07-13T00:09:34.927Z,0
2016-07-13T00:10:34.920Z,0
2016-07-13T00:11:35.027Z,0
2016-07-13T00:12:34.936Z,0
2016-07-13T00:13:34.875Z,0
2016-07-13T00:14:35.616Z,0
2016-07-13T00:15:34.906Z,0
2016-07-13T00:16:34.905Z,0
2016-07-13T00:17:34.897Z,0
2016-07-13T00:18:34.891Z,0
2016-07-13T00:19:34.886Z,0
2016-07-13T00:20:34.887Z,0
2016-07-13T00:21:34.862Z,0
2016-07-13T00:22:34.863Z,0
2016-07-13T00:23:34.860Z,0
2016-07-13T00:24:34.879Z,0
2016-07-13T00:25:35.659Z,0
2016-07-13T00:26:34.857Z,0
2016-07-13T00:27:34.850Z,0
2016-07-13T00:28:34.844Z,0
2016-07-13T00:29:34.849Z,0
2016-07-13T00:30:34.961Z,0
2016-07-13T00:31:36.261Z,0
2016-07-13T00:32:34.837Z,0
2016-07-13T00:33:34.819Z,0
2016-07-13T00:34:34.836Z,0
2016-07-13T00:35:34.921Z,0
2016-07-13T00:36:34.914Z,0
2016-07-13T00:37:34.797Z,0
2016-07-13T00:38:34.927Z,0
2016-07-13T00:39:34.691Z,0
2016-07-13T00:40:34.784Z,0
2016-07-13T00:41:34.805Z,0
2016-07-13T00:42:35.534Z,0
2016-07-13T00:43:34.883Z,0
2016-07-13T00:44:34.793Z,0
2016-07-13T00:45:34.885Z,0
2016-07-13T00:46:34.874Z,0
2016-07-13T00:47:34.794Z,0
2016-07-13T00:48:34.767Z,0
2016-07-13T00:49:34.734Z,0
2016-07-13T00:50:34.793Z,0
2016-07-13T00:51:34.750Z,0
2016-07-13T00:52:34.853Z,0
2016-07-13T00:53:34.746Z,0
2016-07-13T00:54:34.752Z,0
2016-07-13T00:55:34.748Z,0
2016-07-13T00:56:34.740Z,0
2016-07-13T00:57:34.850Z,0
2016-07-13T00:58:34.741Z,0
2016-07-13T00:59:34.728Z,0
2016-07-13T01:00:35.453Z,0
2016-07-13T01:01:34.713Z,0
2016-07-13T01:02:34.718Z,0
2016-07-13T01:03:35.521Z,0
2016-07-13T01:04:34.716Z,0
2016-07-13T01:05:34.700Z,0
2016-07-13T01:06:34.817Z,0
2016-07-13T01:07:34.684Z,0
2016-07-13T01:08:34.691Z,0
2016-07-13T01:09:34.681Z,0
2016-07-13T01:10:34.676Z,0
2016-07-13T01:11:34.689Z,0
2016-07-13T01:12:34.691Z,0
2016-07-13T01:13:34.665Z,0
2016-07-13T01:14:34.659Z,0
2016-07-13T01:15:34.780Z,0
2016-07-13T01:16:34.681Z,0
2016-07-13T01:17:34.688Z,0
2016-07-13T01:18:34.651Z,0
2016-07-13T01:19:34.673Z,0
2016-07-13T01:20:35.356Z,0
2016-07-13T01:21:34.654Z,0
2016-07-13T01:22:34.642Z,0
2016-07-13T01:23:34.655Z,0
2016-07-13T01:24:34.623Z,0
2016-07-13T01:25:34.587Z,0
2016-07-13T01:26:34.648Z,0
2016-07-13T01:27:34.627Z,0
2016-07-13T01:28:35.382Z,0
2016-07-13T01:29:34.618Z,0
2016-07-13T01:30:34.604Z,0
2016-07-13T01:31:34.607Z,0
2016-07-13T01:32:34.599Z,0
2016-07-13T01:33:34.711Z,0
2016-07-13T01:34:34.730Z,0
2016-07-13T01:35:34.615Z,0
2016-07-13T01:36:34.604Z,0
2016-07-13T01:37:34.590Z,0
2016-07-13T01:38:34.580Z,0
2016-07-13T01:39:34.573Z,0
2016-07-13T01:40:34.580Z,0
2016-07-13T01:41:34.568Z,0
2016-07-13T01:42:34.559Z,0
2016-07-13T01:43:34.683Z,0
2016-07-13T01:44:34.563Z,0
2016-07-13T01:45:34.560Z,0
2016-07-13T01:46:34.540Z,0
2016-07-13T01:47:34.576Z,0
2016-07-13T01:48:34.538Z,0
2016-07-13T01:49:34.628Z,0
2016-07-13T01:50:35.244Z,0
2016-07-13T01:51:34.511Z,0
2016-07-13T01:52:34.510Z,0
2016-07-13T01:53:34.658Z,0
2016-07-13T01:54:34.525Z,0
2016-07-13T01:55:34.538Z,0
2016-07-13T01:56:34.513Z,0
2016-07-13T01:57:34.508Z,0
2016-07-13T01:58:34.592Z,0
2016-07-13T01:59:34.507Z,0
2016-07-13T02:00:34.504Z,0
2016-07-13T02:01:34.474Z,0
2016-07-13T02:02:34.483Z,0
2016-07-13T02:03:34.473Z,0
2016-07-13T02:04:35.227Z,0
2016-07-13T02:05:34.558Z,0
2016-07-13T02:06:34.472Z,0
2016-07-13T02:07:35.263Z,0
2016-07-13T02:08:34.573Z,0
2016-07-13T02:09:34.451Z,0
2016-07-13T02:10:34.570Z,0
2016-07-13T02:11:34.446Z,0
2016-07-13T02:12:34.451Z,0
2016-07-13T02:13:34.468Z,0
2016-07-13T02:14:34.419Z,0
2016-07-13T02:15:34.427Z,0
2016-07-13T02:16:34.406Z,0
2016-07-13T02:17:35.155Z,0
2016-07-13T02:18:34.423Z,0
2016-07-13T02:19:34.532Z,0
2016-07-13T02:20:34.382Z,0
2016-07-13T02:21:34.417Z,0
2016-07-13T02:22:34.422Z,0
2016-07-13T02:23:34.428Z,0
2016-07-13T02:24:34.380Z,0
2016-07-13T02:25:34.369Z,0
2016-07-13T02:26:34.369Z,0
2016-07-13T02:27:35.114Z,0
2016-07-13T02:28:34.360Z,0
2016-07-13T02:29:34.383Z,0
2016-07-13T02:30:34.373Z,0
2016-07-13T02:31:34.383Z,0
2016-07-13T02:32:34.389Z,0
2016-07-13T02:33:34.352Z,0
2016-07-13T02:34:34.247Z,0
2016-07-13T02:35:34.461Z,0
2016-07-13T02:36:34.362Z,0
2016-07-13T02:37:34.473Z,0
2016-07-13T02:38:34.464Z,0
2016-07-13T02:39:34.397Z,0
2016-07-13T02:40:34.343Z,0
2016-07-13T02:41:35.103Z,0
2016-07-13T02:42:34.390Z,0
2016-07-13T02:43:34.292Z,0
2016-07-13T02:44:34.416Z,0
2016-07-13T02:45:34.314Z,0
2016-07-13T02:46:34.422Z,0
2016-07-13T02:47:34.364Z,0
2016-07-13T02:48:34.197Z,0
2016-07-13T02:49:34.305Z,0
2016-07-13T02:50:34.313Z,0
2016-07-13T02:51:34.395Z,0
2016-07-13T02:52:34.257Z,0
2016-07-13T02:53:34.287Z,0
2016-07-13T02:54:34.284Z,0
2016-07-13T02:55:34.272Z,0
2016-07-13T02:56:34.978Z,0
2016-07-13T02:57:34.266Z,0
2016-07-13T02:58:34.159Z,0
2016-07-13T02:59:35.666Z,0
2016-07-13T03:00:34.970Z,0
2016-07-13T03:01:34.251Z,0
2016-07-13T03:02:34.240Z,0
2016-07-13T03:03:34.238Z,0
2016-07-13T03:04:34.132Z,0
2016-07-13T03:05:34.356Z,0
2016-07-13T03:06:34.276Z,0
2016-07-13T03:07:34.235Z,0
2016-07-13T03:08:34.227Z,0
2016-07-13T03:09:34.236Z,0
2016-07-13T03:10:34.210Z,0
2016-07-13T03:11:34.304Z,0
2016-07-13T03:12:34.083Z,0
2016-07-13T03:13:34.179Z,0
2016-07-13T03:14:34.211Z,0
2016-07-13T03:15:34.180Z,0
2016-07-13T03:16:34.279Z,0
2016-07-13T03:17:34.298Z,0
2016-07-13T03:18:34.071Z,0
2016-07-13T03:19:34.889Z,0
2016-07-13T03:20:34.262Z,0
2016-07-13T03:21:34.360Z,0
2016-07-13T03:22:34.184Z,5
2016-07-13T03:23:34.254Z,5
2016-07-13T03:24:34.140Z,5
2016-07-13T03:25:34.149Z,5
2016-07-13T03:26:34.129Z,5
2016-07-13T03:27:34.235Z,5
2016-07-13T03:28:34.107Z,5
2016-07-13T03:29:34.094Z,5
2016-07-13T03:30:34.233Z,5
2016-07-13T03:31:34.218Z,5
2016-07-13T03:32:34.188Z,5
2016-07-13T03:33:34.170Z,5
2016-07-13T03:34:34.842Z,5
2016-07-13T03:35:34.107Z,5
2016-07-13T03:36:34.196Z,10
2016-07-13T03:37:34.098Z,10
2016-07-13T03:38:34.097Z,10
2016-07-13T03:39:34.093Z,10
2016-07-13T03:40:33.968Z,10
2016-07-13T03:41:34.083Z,10
2016-07-13T03:42:34.092Z,10
2016-07-13T03:43:34.076Z,10
2016-07-13T03:44:34.037Z,10
2016-07-13T03:45:33.949Z,15
2016-07-13T03:46:34.048Z,15
2016-07-13T03:47:34.056Z,15
2016-07-13T03:48:34.047Z,15
2016-07-13T03:49:34.020Z,15
2016-07-13T03:50:34.020Z,15
2016-07-13T03:51:34.054Z,15
2016-07-13T03:52:34.053Z,15
2016-07-13T03:53:34.037Z,20
2016-07-13T03:54:34.047Z,15
2016-07-13T03:55:34.752Z,15
2016-07-13T03:56:34.737Z,15
2016-07-13T03:57:34.022Z,15
2016-07-13T03:58:34.071Z,15
2016-07-13T03:59:34.012Z,15
2016-07-13T04:00:34.025Z,20
2016-07-13T04:01:34.019Z,20
2016-07-13T04:02:34.014Z,20
2016-07-13T04:03:33.996Z,20
2016-07-13T04:04:33.991Z,25
2016-07-13T04:05:33.972Z,25
2016-07-13T04:06:34.079Z,25
2016-07-13T04:07:34.043Z,25
2016-07-13T04:08:33.967Z,25
2016-07-13T04:09:33.967Z,25
2016-07-13T04:10:33.980Z,25
2016-07-13T04:11:33.963Z,20
2016-07-13T04:12:33.960Z,20
2016-07-13T04:13:33.946Z,20
2016-07-13T04:14:33.953Z,20
2016-07-13T04:15:33.942Z,25
2016-07-13T04:16:34.049Z,25
2016-07-13T04:17:33.954Z,25
2016-07-13T04:18:33.936Z,25
2016-07-13T04:19:34.016Z,25
2016-07-13T04:20:34.121Z,30
2016-07-13T04:21:33.927Z,30
2016-07-13T04:22:33.943Z,35
2016-07-13T04:23:34.012Z,40
2016-07-13T04:24:33.910Z,45
2016-07-13T04:25:34.601Z,50
2016-07-13T04:26:34.616Z,55
2016-07-13T04:27:34.715Z,55
2016-07-13T04:28:34.017Z,55
2016-07-13T04:29:33.981Z,55
2016-07-13T04:30:33.880Z,55
2016-07-13T04:31:33.888Z,55
2016-07-13T04:32:33.888Z,50
2016-07-13T04:33:33.871Z,50
2016-07-13T04:34:33.878Z,50
2016-07-13T04:35:34.000Z,50
2016-07-13T04:36:34.573Z,55
2016-07-13T04:37:33.965Z,55
2016-07-13T04:38:33.845Z,60
2016-07-13T04:39:33.834Z,65
2016-07-13T04:40:33.851Z,75
2016-07-13T04:41:33.891Z,85
2016-07-13T04:42:33.838Z,90
2016-07-13T04:43:33.929Z,90
2016-07-13T04:44:33.813Z,100
2016-07-13T04:45:33.827Z,100
2016-07-13T04:46:33.829Z,110
2016-07-13T04:47:33.819Z,125
2016-07-13T04:48:33.817Z,135
2016-07-13T04:49:33.914Z,140
2016-07-13T04:50:33.914Z,145
2016-07-13T04:51:34.065Z,140
2016-07-13T04:52:34.076Z,130
2016-07-13T04:53:33.799Z,120
2016-07-13T04:54:33.795Z,135
2016-07-13T04:55:33.795Z,145
2016-07-13T04:56:33.782Z,155
2016-07-13T04:57:34.044Z,170
2016-07-13T04:58:33.780Z,190
2016-07-13T04:59:33.744Z,210
2016-07-13T05:00:33.770Z,205
2016-07-13T05:01:33.775Z,185
2016-07-13T05:02:33.777Z,160
2016-07-13T05:03:34.063Z,140
2016-07-13T05:04:34.074Z,135
2016-07-13T05:05:33.940Z,125
2016-07-13T05:06:33.750Z,110
2016-07-13T05:07:33.903Z,105
2016-07-13T05:08:33.950Z,100
2016-07-13T05:09:33.748Z,95
2016-07-13T05:10:33.935Z,90
2016-07-13T05:11:33.742Z,95
2016-07-13T05:12:33.896Z,110
2016-07-13T05:13:33.835Z,115
2016-07-13T05:14:33.930Z,120
2016-07-13T05:15:33.917Z,125
2016-07-13T05:16:33.729Z,125
2016-07-13T05:17:33.684Z,120
2016-07-13T05:18:34.677Z,120
2016-07-13T05:19:33.616Z,120
2016-07-13T05:20:33.888Z,120
2016-07-13T05:21:33.901Z,125
2016-07-13T05:22:34.006Z,130
2016-07-13T05:23:34.647Z,130
2016-07-13T05:24:33.807Z,130
2016-07-13T05:25:33.793Z,130
2016-07-13T05:26:33.802Z,130
2016-07-13T05:27:33.892Z,130
2016-07-13T05:28:33.884Z,135
2016-07-13T05:29:33.877Z,135
2016-07-13T05:30:33.886Z,135
2016-07-13T05:31:33.683Z,135
2016-07-13T05:32:33.990Z,135
2016-07-13T05:33:33.681Z,140
2016-07-13T05:34:33.666Z,140
2016-07-13T05:35:33.657Z,145
2016-07-13T05:36:33.680Z,150
2016-07-13T05:37:33.877Z,160
2016-07-13T05:38:33.646Z,165
2016-07-13T05:39:33.848Z,175
2016-07-13T05:40:33.772Z,185
2016-07-13T05:41:34.023Z,200
2016-07-13T05:42:33.666Z,205
2016-07-13T05:43:34.602Z,215
2016-07-13T05:44:33.956Z,215
2016-07-13T05:45:33.635Z,215
2016-07-13T05:46:34.353Z,205
2016-07-13T05:47:34.347Z,195
2016-07-13T05:48:33.644Z,190
2016-07-13T05:49:33.623Z,190
2016-07-13T05:50:33.905Z,190
2016-07-13T05:51:33.862Z,200
2016-07-13T05:52:33.644Z,195
2016-07-13T05:53:34.483Z,195
2016-07-13T05:54:33.840Z,200
2016-07-13T05:55:33.898Z,195
2016-07-13T05:56:33.739Z,195
2016-07-13T05:57:33.614Z,200
2016-07-13T05:58:33.618Z,205
2016-07-13T05:59:33.588Z,215
2016-07-13T06:00:33.622Z,225
2016-07-13T06:01:33.603Z,235
2016-07-13T06:02:33.622Z,230
2016-07-13T06:03:33.616Z,225
2016-07-13T06:04:33.627Z,215
2016-07-13T06:05:33.876Z,210
2016-07-13T06:06:33.611Z,215
2016-07-13T06:07:33.623Z,225
2016-07-13T06:08:33.586Z,240
2016-07-13T06:09:33.865Z,250
2016-07-13T06:10:34.311Z,255
2016-07-13T06:11:33.602Z,255
2016-07-13T06:12:33.602Z,255
2016-07-13T06:13:33.603Z,250
2016-07-13T06:14:33.564Z,240
2016-07-13T06:15:33.583Z,230
2016-07-13T06:16:33.567Z,225
2016-07-13T06:17:33.591Z,220
2016-07-13T06:18:33.584Z,225
2016-07-13T06:19:33.557Z,240
2016-07-13T06:20:33.600Z,260
2016-07-13T06:21:33.917Z,275
2016-07-13T06:22:33.591Z,305
2016-07-13T06:23:33.588Z,330
2016-07-13T06:24:33.574Z,340
2016-07-13T06:25:33.865Z,355
2016-07-13T06:26:33.679Z,380
2016-07-13T06:27:33.592Z,410
2016-07-13T06:28:34.381Z,445
2016-07-13T06:29:33.590Z,470
2016-07-13T06:30:34.394Z,460
2016-07-13T06:31:33.578Z,435
2016-07-13T06:32:33.549Z,405
2016-07-13T06:33:33.578Z,380
2016-07-13T06:34:33.569Z,350
2016-07-13T06:35:33.539Z,335
2016-07-13T06:36:33.569Z,320
2016-07-13T06:37:33.568Z,310
2016-07-13T06:38:33.565Z,320
2016-07-13T06:39:33.573Z,325
2016-07-13T06:40:33.604Z,350
2016-07-13T06:41:33.619Z,355
2016-07-13T06:42:33.586Z,365
2016-07-13T06:43:33.538Z,390
2016-07-13T06:44:33.533Z,410
2016-07-13T06:45:33.578Z,395
2016-07-13T06:46:33.539Z,385
2016-07-13T06:47:33.559Z,410
2016-07-13T06:48:33.533Z,420
2016-07-13T06:49:33.567Z,415
2016-07-13T06:50:33.552Z,415
2016-07-13T06:51:33.577Z,400
2016-07-13T06:52:33.559Z,390
2016-07-13T06:53:33.568Z,350
2016-07-13T06:54:33.567Z,345
2016-07-13T06:55:33.577Z,385
2016-07-13T06:56:33.549Z,450
2016-07-13T06:57:34.376Z,460
2016-07-13T06:58:33.546Z,425
2016-07-13T06:59:33.578Z,415
2016-07-13T07:00:33.526Z,425
2016-07-13T07:01:33.542Z,470
2016-07-13T07:02:33.563Z,550
2016-07-13T07:03:33.650Z,530
2016-07-13T07:04:33.547Z,480
2016-07-13T07:05:33.559Z,455
2016-07-13T07:06:33.532Z,415
2016-07-13T07:07:33.556Z,460
2016-07-13T07:08:33.841Z,385
2016-07-13T07:09:33.549Z,355
2016-07-13T07:10:33.440Z,350
2016-07-13T07:11:33.661Z,545
2016-07-13T07:12:33.597Z,300
2016-07-13T07:13:33.536Z,290
2016-07-13T07:14:33.663Z,375
2016-07-13T07:15:34.273Z,615
2016-07-13T07:16:33.559Z,540
2016-07-13T07:17:33.542Z,630
2016-07-13T07:18:33.548Z,345
2016-07-13T07:19:33.548Z,315
2016-07-13T07:20:33.510Z,335
2016-07-13T07:21:33.568Z,570
2016-07-13T07:22:33.523Z,615
2016-07-13T07:23:33.552Z,415
2016-07-13T07:24:33.557Z,430
2016-07-13T07:25:33.580Z,480
2016-07-13T07:26:33.538Z,485
2016-07-13T07:27:33.595Z,515
2016-07-13T07:28:33.561Z,680
2016-07-13T07:29:33.587Z,830
2016-07-13T07:30:33.573Z,670
2016-07-13T07:31:33.583Z,520
2016-07-13T07:32:33.582Z,450
2016-07-13T07:33:33.553Z,470
2016-07-13T07:34:33.587Z,445
2016-07-13T07:35:33.595Z,375
2016-07-13T07:36:33.559Z,410
2016-07-13T07:37:33.617Z,490
2016-07-13T07:38:33.869Z,470
2016-07-13T07:39:33.587Z,480
2016-07-13T07:40:34.311Z,420
2016-07-13T07:41:33.619Z,385
2016-07-13T07:42:34.407Z,335
2016-07-13T07:43:33.615Z,300
2016-07-13T07:44:33.611Z,285
2016-07-13T07:45:33.622Z,290
2016-07-13T07:46:34.321Z,330
2016-07-13T07:47:33.625Z,340
2016-07-13T07:48:33.948Z,360
2016-07-13T07:49:33.642Z,365
2016-07-13T07:50:33.622Z,365
2016-07-13T07:51:33.605Z,330
2016-07-13T07:52:33.889Z,330
2016-07-13T07:53:33.631Z,320
2016-07-13T07:54:33.621Z,285
2016-07-13T07:55:33.628Z,235
2016-07-13T07:56:33.901Z,195
2016-07-13T07:57:33.634Z,165
2016-07-13T07:58:34.332Z,150
2016-07-13T07:59:33.920Z,150
2016-07-13T08:00:33.648Z,160
2016-07-13T08:01:33.930Z,160
2016-07-13T08:02:33.844Z,150
2016-07-13T08:03:33.651Z,135
2016-07-13T08:04:33.658Z,115
2016-07-13T08:05:33.663Z,100
2016-07-13T08:06:33.628Z,95
2016-07-13T08:07:33.987Z,95
2016-07-13T08:08:33.644Z,105
2016-07-13T08:09:33.993Z,110
2016-07-13T08:10:33.862Z,110
2016-07-13T08:11:34.370Z,100
2016-07-13T08:12:33.949Z,90
2016-07-13T08:13:33.846Z,85
2016-07-13T08:14:33.786Z,75
2016-07-13T08:15:33.627Z,75
2016-07-13T08:16:33.665Z,75
2016-07-13T08:17:33.913Z,85
2016-07-13T08:18:33.870Z,90
2016-07-13T08:19:33.917Z,90
2016-07-13T08:20:33.634Z,95
2016-07-13T08:21:33.674Z,110
2016-07-13T08:22:33.979Z,135
2016-07-13T08:23:33.947Z,160
2016-07-13T08:24:33.645Z,165
2016-07-13T08:25:34.368Z,150
2016-07-13T08:26:33.646Z,150
2016-07-13T08:27:33.649Z,155
2016-07-13T08:28:34.622Z,145
2016-07-13T08:29:33.659Z,140
2016-07-13T08:30:33.635Z,150
2016-07-13T08:31:33.750Z,160
2016-07-13T08:32:33.648Z,180
2016-07-13T08:33:33.865Z,195
2016-07-13T08:34:33.630Z,190
2016-07-13T08:35:33.618Z,205
2016-07-13T08:36:33.637Z,245
2016-07-13T08:37:33.823Z,285
2016-07-13T08:38:33.640Z,320
2016-07-13T08:39:34.343Z,330
2016-07-13T08:40:33.643Z,340
2016-07-13T08:41:33.534Z,365
2016-07-13T08:42:33.640Z,405
2016-07-13T08:43:33.643Z,445
2016-07-13T08:44:34.348Z,470
2016-07-13T08:45:33.638Z,500
2016-07-13T08:46:33.537Z,515
2016-07-13T08:47:33.654Z,525
2016-07-13T08:48:33.626Z,535
2016-07-13T08:49:33.631Z,560
2016-07-13T08:50:33.848Z,575
2016-07-13T08:51:33.837Z,560
2016-07-13T08:52:33.898Z,570
2016-07-13T08:53:33.644Z,565
2016-07-13T08:54:33.633Z,540
2016-07-13T08:55:33.827Z,515
2016-07-13T08:56:33.511Z,480
2016-07-13T08:57:33.898Z,440
2016-07-13T08:58:33.658Z,400
2016-07-13T08:59:33.635Z,390
2016-07-13T09:00:33.633Z,390
2016-07-13T09:01:33.629Z,380
2016-07-13T09:02:33.626Z,375
2016-07-13T09:03:34.229Z,355
2016-07-13T09:04:33.838Z,315
2016-07-13T09:05:34.527Z,275
2016-07-13T09:06:33.601Z,230
2016-07-13T09:07:33.628Z,225
2016-07-13T09:08:33.635Z,235
2016-07-13T09:09:33.604Z,245
2016-07-13T09:10:33.619Z,225
2016-07-13T09:11:33.626Z,190
2016-07-13T09:12:33.899Z,150
2016-07-13T09:13:33.627Z,105
2016-07-13T09:14:33.601Z,85
2016-07-13T09:15:33.638Z,105
2016-07-13T09:16:34.433Z,140
2016-07-13T09:17:33.643Z,160
2016-07-13T09:18:34.526Z,160
2016-07-13T09:19:33.643Z,140
2016-07-13T09:20:33.504Z,130
2016-07-13T09:21:33.520Z,125
2016-07-13T09:22:34.080Z,120
2016-07-13T09:23:34.464Z,125
2016-07-13T09:24:33.615Z,135
2016-07-13T09:25:34.394Z,125
2016-07-13T09:26:33.486Z,120
2016-07-13T09:27:35.846Z,110
2016-07-13T09:28:34.323Z,105
2016-07-13T09:29:34.770Z,100
2016-07-13T09:30:34.202Z,95
2016-07-13T09:31:35.001Z,95
2016-07-13T09:32:48.597Z,95
2016-07-13T09:33:33.835Z,95
2016-07-13T09:34:34.503Z,90
2016-07-13T09:35:33.587Z,75
2016-07-13T09:36:33.482Z,65
2016-07-13T09:37:33.616Z,65
2016-07-13T09:38:34.592Z,65
2016-07-13T09:39:35.026Z,55
2016-07-13T09:40:33.919Z,60
2016-07-13T09:41:33.738Z,85
2016-07-13T09:42:33.630Z,130
2016-07-13T09:43:34.763Z,190
2016-07-13T09:44:33.896Z,245
2016-07-13T09:45:33.571Z,295
2016-07-13T09:46:35.507Z,340
2016-07-13T09:47:34.328Z,370
2016-07-13T09:48:34.591Z,420
2016-07-13T09:49:34.397Z,475
2016-07-13T09:50:33.553Z,525
2016-07-13T09:51:33.548Z,525
2016-07-13T09:52:33.657Z,515
2016-07-13T09:53:33.739Z,500
2016-07-13T09:54:33.641Z,475
2016-07-13T09:55:34.342Z,470
2016-07-13T09:56:34.254Z,480
2016-07-13T09:57:33.531Z,510
2016-07-13T09:58:34.609Z,565
2016-07-13T09:59:33.728Z,635
2016-07-13T10:00:34.679Z,635
2016-07-13T10:01:33.735Z,615
2016-07-13T10:02:33.494Z,610
2016-07-13T10:03:33.505Z,640
2016-07-13T10:04:33.504Z,670
2016-07-13T10:05:33.536Z,690
2016-07-13T10:06:33.389Z,690
2016-07-13T10:07:33.526Z,710
2016-07-13T10:08:33.609Z,715
2016-07-13T10:09:33.511Z,725
2016-07-13T10:10:33.515Z,720
2016-07-13T10:11:33.502Z,720
2016-07-13T10:12:33.499Z,735
2016-07-13T10:13:33.494Z,730
2016-07-13T10:14:33.490Z,705
2016-07-13T10:15:34.216Z,700
2016-07-13T10:16:34.217Z,695
2016-07-13T10:17:34.202Z,670
2016-07-13T10:18:34.318Z,710
2016-07-13T10:19:33.497Z,725
2016-07-13T10:20:33.489Z,735
2016-07-13T10:21:33.495Z,760
2016-07-13T10:22:33.498Z,775
2016-07-13T10:23:33.466Z,775
2016-07-13T10:24:34.196Z,765
2016-07-13T10:25:33.486Z,720
2016-07-13T10:26:33.469Z,685
2016-07-13T10:27:33.698Z,645
2016-07-13T10:28:33.508Z,595
2016-07-13T10:29:48.385Z,585
2016-07-13T10:30:33.487Z,590
2016-07-13T10:31:48.371Z,590
2016-07-13T10:32:48.984Z,625
2016-07-13T10:33:33.616Z,630
2016-07-13T10:34:33.483Z,660
2016-07-13T10:35:33.488Z,565
2016-07-13T10:36:33.373Z,585
2016-07-13T10:37:33.498Z,595
2016-07-13T10:38:33.485Z,595
2016-07-13T10:39:33.519Z,610
2016-07-13T10:40:33.495Z,640
2016-07-13T10:41:33.542Z,655
2016-07-13T10:42:33.505Z,695
2016-07-13T10:43:33.508Z,710
2016-07-13T10:44:33.502Z,710
2016-07-13T10:45:33.494Z,710
2016-07-13T10:46:33.396Z,715
2016-07-13T10:47:33.504Z,730
2016-07-13T10:48:33.507Z,745
2016-07-13T10:49:33.515Z,780
2016-07-13T10:50:33.500Z,780
2016-07-13T10:51:33.500Z,765
2016-07-13T10:52:33.507Z,710
2016-07-13T10:53:33.513Z,670
2016-07-13T10:54:33.505Z,635
2016-07-13T10:55:33.515Z,620
2016-07-13T10:56:33.396Z,620
2016-07-13T10:57:33.507Z,630
2016-07-13T10:58:33.489Z,610
2016-07-13T10:59:33.606Z,500
2016-07-13T11:00:33.513Z,405
2016-07-13T11:01:33.506Z,330
2016-07-13T11:02:33.511Z,290
2016-07-13T11:03:33.523Z,275
2016-07-13T11:04:34.227Z,265
2016-07-13T11:05:33.515Z,265
2016-07-13T11:06:33.413Z,295
2016-07-13T11:07:33.554Z,325
2016-07-13T11:08:33.523Z,320
2016-07-13T11:09:34.238Z,405
2016-07-13T11:10:33.588Z,425
2016-07-13T11:11:34.254Z,470
2016-07-13T11:12:33.522Z,470
2016-07-13T11:13:34.240Z,445
2016-07-13T11:14:33.498Z,500
2016-07-13T11:15:33.531Z,540
2016-07-13T11:16:34.342Z,555
2016-07-13T11:17:33.543Z,580
2016-07-13T11:18:33.532Z,580
2016-07-13T11:19:33.641Z,500
2016-07-13T11:20:33.531Z,490
2016-07-13T11:21:33.540Z,495
2016-07-13T11:22:33.635Z,460
2016-07-13T11:23:33.658Z,450
2016-07-13T11:24:33.510Z,450
2016-07-13T11:25:34.258Z,440
2016-07-13T11:26:33.441Z,445
2016-07-13T11:27:33.552Z,450
2016-07-13T11:28:33.438Z,465
2016-07-13T11:29:33.565Z,475
2016-07-13T11:30:33.431Z,475
2016-07-13T11:31:33.834Z,480
2016-07-13T11:32:33.529Z,480
2016-07-13T11:33:33.545Z,455
2016-07-13T11:34:33.562Z,425
2016-07-13T11:35:33.561Z,400
2016-07-13T11:36:33.692Z,340
2016-07-13T11:37:33.567Z,285
2016-07-13T11:38:34.281Z,235
2016-07-13T11:39:33.557Z,205
2016-07-13T11:40:34.258Z,195
2016-07-13T11:41:33.618Z,190
2016-07-13T11:42:33.563Z,185
2016-07-13T11:43:33.830Z,195
2016-07-13T11:44:33.585Z,215
2016-07-13T11:45:33.567Z,235
2016-07-13T11:46:34.366Z,275
2016-07-13T11:47:33.566Z,275
2016-07-13T11:48:33.896Z,310
2016-07-13T11:49:33.553Z,350
2016-07-13T11:50:33.537Z,395
2016-07-13T11:51:33.547Z,455
2016-07-13T11:52:33.551Z,425
2016-07-13T11:53:33.567Z,425
2016-07-13T11:54:33.566Z,450
2016-07-13T11:55:33.570Z,405
2016-07-13T11:56:33.554Z,350
2016-07-13T11:57:33.553Z,305
2016-07-13T11:58:33.572Z,275
2016-07-13T11:59:33.574Z,260
2016-07-13T12:00:33.576Z,250
2016-07-13T12:01:33.559Z,230
2016-07-13T12:02:33.543Z,225
2016-07-13T12:03:33.560Z,200
2016-07-13T12:04:33.553Z,210
2016-07-13T12:05:34.285Z,210
2016-07-13T12:06:33.452Z,215
2016-07-13T12:07:33.548Z,240
2016-07-13T12:08:33.558Z,250
2016-07-13T12:09:33.560Z,240
2016-07-13T12:10:34.281Z,250
2016-07-13T12:11:33.578Z,250
2016-07-13T12:12:33.542Z,260
2016-07-13T12:13:33.575Z,260
2016-07-13T12:14:33.591Z,275
2016-07-13T12:15:33.582Z,305
2016-07-13T12:16:33.548Z,320
2016-07-13T12:17:33.593Z,325
2016-07-13T12:18:34.283Z,330
2016-07-13T12:19:33.911Z,335
2016-07-13T12:20:33.581Z,345
2016-07-13T12:21:33.576Z,395
2016-07-13T12:22:33.789Z,425
2016-07-13T12:23:33.595Z,400
2016-07-13T12:24:33.573Z,340
2016-07-13T12:25:33.854Z,315
2016-07-13T12:26:33.463Z,345
2016-07-13T12:27:33.589Z,455
2016-07-13T12:28:33.569Z,505
2016-07-13T12:29:33.850Z,490
2016-07-13T12:30:33.853Z,480
2016-07-13T12:31:33.909Z,455
2016-07-13T12:32:33.852Z,420
2016-07-13T12:33:33.911Z,410
2016-07-13T12:34:33.567Z,420
2016-07-13T12:35:33.574Z,445
2016-07-13T12:36:33.461Z,495
2016-07-13T12:37:33.919Z,575
2016-07-13T12:38:33.602Z,615
2016-07-13T12:39:33.853Z,570
2016-07-13T12:40:33.623Z,510
2016-07-13T12:41:33.587Z,475
2016-07-13T12:42:33.591Z,465
2016-07-13T12:43:33.589Z,465
2016-07-13T12:44:33.613Z,490
2016-07-13T12:45:33.853Z,495
2016-07-13T12:46:33.491Z,515
2016-07-13T12:47:33.726Z,540
2016-07-13T12:48:33.607Z,535
2016-07-13T12:49:33.481Z,510
2016-07-13T12:50:33.595Z,435
2016-07-13T12:51:33.584Z,380
2016-07-13T12:52:33.614Z,335
2016-07-13T12:53:33.530Z,315
2016-07-13T12:54:33.585Z,290
2016-07-13T12:55:34.335Z,260
2016-07-13T12:56:33.493Z,240
2016-07-13T12:57:33.796Z,215
2016-07-13T12:58:33.609Z,195
2016-07-13T12:59:33.864Z,190
2016-07-13T13:00:33.601Z,190
2016-07-13T13:01:33.601Z,190
2016-07-13T13:02:33.607Z,205
2016-07-13T13:03:33.942Z,205
2016-07-13T13:04:33.626Z,185
2016-07-13T13:05:33.625Z,165
2016-07-13T13:06:33.504Z,145
2016-07-13T13:07:33.728Z,125
2016-07-13T13:08:33.626Z,95
2016-07-13T13:09:33.628Z,80
2016-07-13T13:10:33.639Z,75
2016-07-13T13:11:33.876Z,75
2016-07-13T13:12:33.626Z,80
2016-07-13T13:13:33.659Z,80
2016-07-13T13:14:33.620Z,90
2016-07-13T13:15:33.611Z,100
2016-07-13T13:16:33.503Z,105
2016-07-13T13:17:33.606Z,110
2016-07-13T13:18:33.632Z,115
2016-07-13T13:19:33.625Z,120
2016-07-13T13:20:33.601Z,115
2016-07-13T13:21:33.882Z,115
2016-07-13T13:22:33.621Z,120
2016-07-13T13:23:33.947Z,125
2016-07-13T13:24:33.655Z,140
2016-07-13T13:25:33.617Z,150
2016-07-13T13:26:33.515Z,180
2016-07-13T13:27:33.613Z,220
2016-07-13T13:28:33.887Z,295
2016-07-13T13:29:33.877Z,335
2016-07-13T13:30:33.877Z,305
2016-07-13T13:31:33.507Z,285
2016-07-13T13:32:33.623Z,305
2016-07-13T13:33:33.585Z,320
2016-07-13T13:34:33.571Z,325
2016-07-13T13:35:33.534Z,320
2016-07-13T13:36:33.572Z,300
2016-07-13T13:37:34.263Z,290
2016-07-13T13:38:33.583Z,315
2016-07-13T13:39:33.571Z,385
2016-07-13T13:40:34.573Z,455
2016-07-13T13:41:33.642Z,490
2016-07-13T13:42:33.473Z,505
2016-07-13T13:43:33.908Z,530
2016-07-13T13:44:33.618Z,545
2016-07-13T13:45:33.921Z,555
2016-07-13T13:46:33.458Z,545
2016-07-13T13:47:33.462Z,520
2016-07-13T13:48:33.582Z,510
2016-07-13T13:49:33.896Z,530
2016-07-13T13:50:33.567Z,540
2016-07-13T13:51:33.604Z,555
2016-07-13T13:52:33.609Z,560
2016-07-13T13:53:33.835Z,575
2016-07-13T13:54:33.564Z,590
2016-07-13T13:55:33.836Z,595
2016-07-13T13:56:33.458Z,590
2016-07-13T13:57:33.566Z,570
2016-07-13T13:58:33.894Z,560
2016-07-13T13:59:33.557Z,550
2016-07-13T14:00:33.555Z,545
2016-07-13T14:01:33.566Z,550
2016-07-13T14:02:33.543Z,555
2016-07-13T14:03:33.665Z,555
2016-07-13T14:04:33.655Z,555